Time;durP1;ratioP1;P1;durP2;ratioP2;P2;SDS_P1;SDS_P2;PMS_P1;PMS_P2;Temp;Humidity;BMP_temperature;BMP_pressure;BME280_temperature;BME280_humidity;BME280_pressure;Samples;Min_cycle;Max_cycle;Signal;HPM_P1;HPM_P2
2023/08/08 00:01:36;;;;;;;5.43;2.78;;;;;;;13.81;87.59;101327.66;4971795;28;20046;-75
2023/08/08 00:04:03;;;;;;;5.68;2.80;;;;;;;13.78;87.84;101322.44;4972292;28;20506;-75
2023/08/08 00:06:30;;;;;;;3.58;2.33;;;;;;;13.74;87.75;101326.13;4988401;28;20046;-75
2023/08/08 00:08:57;;;;;;;4.15;2.40;;;;;;;13.72;87.71;101325.34;4971529;28;20108;-75
2023/08/08 00:11:24;;;;;;;6.32;2.80;;;;;;;13.71;88.15;101320.06;4989400;28;20043;-75
2023/08/08 00:13:51;;;;;;;5.45;2.40;;;;;;;13.70;88.28;101321.00;4959583;28;20046;-75
2023/08/08 00:16:18;;;;;;;4.40;2.33;;;;;;;13.67;88.34;101321.97;4952489;28;20057;-75
2023/08/08 00:18:46;;;;;;;4.13;2.58;;;;;;;13.64;88.35;101320.31;4977535;28;20046;-75
2023/08/08 00:21:13;;;;;;;5.05;2.63;;;;;;;13.62;88.64;101319.50;4988291;28;20049;-75
2023/08/08 00:23:40;;;;;;;5.45;2.80;;;;;;;13.61;88.71;101309.81;4987440;28;20050;-75
2023/08/08 00:26:07;;;;;;;5.03;2.58;;;;;;;13.61;89.08;101311.59;4989359;28;20042;-75
2023/08/08 00:28:34;;;;;;;10.02;2.67;;;;;;;13.62;88.99;101308.03;4988416;28;20049;-75
2023/08/08 00:31:01;;;;;;;5.57;2.60;;;;;;;13.62;88.93;101308.03;4988132;28;20102;-75
2023/08/08 00:33:28;;;;;;;5.40;2.50;;;;;;;13.66;89.01;101315.81;4998698;28;20099;-75
2023/08/08 00:35:56;;;;;;;5.35;2.42;;;;;;;13.68;89.25;101314.91;4987649;28;20054;-75
2023/08/08 00:38:24;;;;;;;7.40;2.72;;;;;;;13.72;88.86;101305.91;4989229;28;20466;-76
2023/08/08 00:40:51;;;;;;;4.22;2.63;;;;;;;13.74;89.29;101310.22;4970814;28;20122;-75
2023/08/08 00:43:18;;;;;;;6.30;2.90;;;;;;;13.79;89.28;101310.06;4988701;28;20054;-75
2023/08/08 00:45:45;;;;;;;5.63;2.70;;;;;;;13.86;89.36;101313.34;4987557;28;20093;-76
2023/08/08 00:48:13;;;;;;;6.07;3.08;;;;;;;13.89;89.18;101302.66;4988326;28;20046;-76
2023/08/08 00:50:44;;;;;;;4.20;2.55;;;;;;;13.91;88.92;101304.31;4986755;28;20046;-75
2023/08/08 00:53:12;;;;;;;5.40;2.78;;;;;;;13.93;88.73;101302.47;4970797;28;20159;-75
2023/08/08 00:55:40;;;;;;;6.70;3.00;;;;;;;13.96;88.64;101307.69;4971346;28;20108;-75
2023/08/08 00:58:07;;;;;;;10.27;2.95;;;;;;;13.98;88.54;101297.88;4987060;28;20069;-75
2023/08/08 01:00:34;;;;;;;6.40;3.10;;;;;;;14.00;88.61;101296.94;4988462;28;20128;-75
2023/08/08 01:03:02;;;;;;;8.35;3.15;;;;;;;14.00;88.67;101292.50;4988357;28;20181;-75
2023/08/08 01:05:44;;;;;;;6.47;3.10;;;;;;;14.03;88.40;101284.47;4970772;28;20132;-76
2023/08/08 01:08:22;;;;;;;6.38;2.58;;;;;;;14.04;88.23;101294.09;4971416;28;20403;-75
2023/08/08 01:10:50;;;;;;;5.43;2.70;;;;;;;14.02;88.23;101292.44;4969269;28;20045;-75
2023/08/08 01:13:22;;;;;;;7.97;2.85;;;;;;;14.02;88.04;101289.78;4988430;28;20049;-75
2023/08/08 01:15:50;;;;;;;10.45;3.03;;;;;;;14.00;88.07;101289.88;4988689;28;20135;-75
2023/08/08 01:18:19;;;;;;;5.97;2.97;;;;;;;13.97;88.32;101282.91;4970471;28;20046;-75
2023/08/08 01:20:47;;;;;;;6.20;3.13;;;;;;;13.97;88.31;101280.25;4970942;28;20399;-75
2023/08/08 01:23:34;;;;;;;6.15;2.78;;;;;;;13.97;88.49;101279.38;4988588;28;20050;-75
2023/08/08 01:26:04;;;;;;;6.57;2.80;;;;;;;13.95;88.59;101276.78;4954705;28;20239;-75
2023/08/08 01:28:33;;;;;;;6.95;2.50;;;;;;;13.94;88.37;101295.38;4970261;28;20077;-75
2023/08/08 01:31:00;;;;;;;7.55;2.60;;;;;;;13.90;88.36;101291.13;4988590;28;20043;-76
2023/08/08 01:33:28;;;;;;;7.53;2.88;;;;;;;13.89;88.62;101290.25;4971112;28;20046;-75
2023/08/08 01:36:15;;;;;;;7.68;2.80;;;;;;;13.90;88.78;101285.81;4972125;28;20142;-75
2023/08/08 01:38:48;;;;;;;6.32;2.78;;;;;;;13.92;89.19;101281.34;4974047;28;20074;-75
2023/08/08 01:41:16;;;;;;;5.93;2.92;;;;;;;13.96;89.06;101282.94;4990530;28;20085;-75
2023/08/08 01:43:44;;;;;;;6.93;2.92;;;;;;;14.00;89.05;101287.22;4989822;28;20074;-75
2023/08/08 01:46:12;;;;;;;6.60;2.95;;;;;;;14.01;89.15;101280.13;4991092;28;20046;-75
2023/08/08 01:48:39;;;;;;;6.90;2.90;;;;;;;14.05;89.10;101271.13;4980709;28;20050;-75
2023/08/08 01:51:06;;;;;;;6.38;3.22;;;;;;;14.06;89.03;101275.53;4991159;28;20042;-75
2023/08/08 01:53:34;;;;;;;5.18;2.90;;;;;;;14.07;89.23;101269.28;4973810;28;20038;-76
2023/08/08 01:56:02;;;;;;;8.25;2.85;;;;;;;14.09;89.30;101273.59;4990779;28;20100;-75
2023/08/08 01:58:29;;;;;;;5.53;2.90;;;;;;;14.10;89.46;101267.38;4988924;28;20121;-75
2023/08/08 02:00:57;;;;;;;5.57;3.10;;;;;;;14.12;89.72;101262.00;4989366;28;20145;-75
2023/08/08 02:03:24;;;;;;;6.35;2.83;;;;;;;14.15;89.64;101264.56;4955329;28;20059;-75
2023/08/08 02:05:51;;;;;;;7.80;2.97;;;;;;;14.19;89.87;101275.91;4955191;28;20051;-75
2023/08/08 02:08:18;;;;;;;5.85;2.90;;;;;;;14.19;89.66;101275.91;4979840;28;20510;-76
2023/08/08 02:10:46;;;;;;;6.82;3.10;;;;;;;14.22;89.46;101281.94;4956886;28;20045;-75
2023/08/08 02:13:13;;;;;;;5.43;3.00;;;;;;;14.22;89.24;101279.28;4973768;28;20092;-75
2023/08/08 02:15:40;;;;;;;5.85;3.08;;;;;;;14.21;89.96;101282.88;4970881;28;20193;-76
2023/08/08 02:18:08;;;;;;;8.38;3.50;;;;;;;14.18;90.76;101280.34;4977939;28;20058;-75
2023/08/08 02:20:35;;;;;;;12.15;3.92;;;;;;;14.10;91.65;101270.03;4990886;28;20565;-75
2023/08/08 02:23:04;;;;;;;7.20;3.60;;;;;;;14.02;92.57;101258.00;4986947;28;20050;-75
2023/08/08 02:25:31;;;;;;;8.65;4.20;;;;;;;13.93;92.77;101254.78;4973161;28;20073;-75
2023/08/08 02:27:58;;;;;;;7.53;4.00;;;;;;;13.89;93.52;101241.69;4989090;28;20413;-75
2023/08/08 02:30:25;;;;;;;8.95;4.30;;;;;;;13.85;94.07;101240.94;4990333;28;20077;-75
2023/08/08 02:32:53;;;;;;;7.13;4.18;;;;;;;13.83;94.72;101242.78;4975036;28;20089;-75
2023/08/08 02:35:20;;;;;;;8.90;4.13;;;;;;;13.80;95.08;101240.25;4989931;28;20448;-75
2023/08/08 02:37:47;;;;;;;7.75;3.90;;;;;;;13.78;95.35;101242.97;4990391;28;20042;-75
2023/08/08 02:40:14;;;;;;;11.50;4.22;;;;;;;13.77;95.67;101245.69;4990086;28;20133;-75
2023/08/08 02:42:41;;;;;;;9.57;4.35;;;;;;;13.74;96.14;101254.59;4990669;28;20042;-75
2023/08/08 02:45:09;;;;;;;10.98;4.60;;;;;;;13.72;96.39;101247.63;4972758;28;20050;-74
2023/08/08 02:47:36;;;;;;;7.75;4.13;;;;;;;13.69;96.51;101242.44;5005711;28;20050;-75
2023/08/08 02:50:04;;;;;;;10.85;4.55;;;;;;;13.65;96.75;101242.56;4975329;28;20536;-74
2023/08/08 02:52:31;;;;;;;8.45;4.28;;;;;;;13.60;96.86;101239.19;4972345;28;20054;-75
2023/08/08 02:54:58;;;;;;;9.07;4.45;;;;;;;13.62;97.63;101240.00;4957054;28;20118;-75
2023/08/08 02:57:25;;;;;;;11.50;4.57;;;;;;;13.62;97.52;101247.97;4972296;28;20085;-75
2023/08/08 02:59:55;;;;;;;11.02;4.85;;;;;;;13.61;97.88;101245.38;4957783;28;20499;-76
2023/08/08 03:02:22;;;;;;;10.63;5.05;;;;;;;13.60;97.86;101247.16;4970715;28;20113;-75
2023/08/08 03:04:50;;;;;;;10.48;4.63;;;;;;;13.57;97.99;101249.94;4973192;28;20050;-75
2023/08/08 03:07:18;;;;;;;12.63;5.22;;;;;;;13.54;98.13;101239.44;4989531;28;20039;-75
2023/08/08 03:09:45;;;;;;;9.02;4.45;;;;;;;13.54;98.47;101241.19;4989130;28;20465;-75
2023/08/08 03:12:13;;;;;;;9.45;5.15;;;;;;;13.51;98.63;101236.88;4956430;28;20038;-75
2023/08/08 03:14:40;;;;;;;9.80;4.78;;;;;;;13.52;99.11;101235.97;4984970;28;20046;-75
2023/08/08 03:17:10;;;;;;;14.07;5.30;;;;;;;13.54;99.22;101226.19;4972060;28;20133;-75
2023/08/08 03:19:38;;;;;;;9.50;4.88;;;;;;;13.55;99.34;101227.03;4969378;28;20470;-75
2023/08/08 03:22:05;;;;;;;19.35;5.43;;;;;;;13.57;99.50;101220.78;4953052;28;20578;-74
2023/08/08 03:24:36;;;;;;;12.05;5.28;;;;;;;13.59;99.60;101221.56;4972078;28;20434;-75
2023/08/08 03:27:03;;;;;;;11.15;5.53;;;;;;;13.59;99.63;101218.94;4989786;28;20046;-75
2023/08/08 03:29:31;;;;;;;11.32;5.22;;;;;;;13.59;99.85;101226.88;4971293;28;20070;-76
2023/08/08 03:31:59;;;;;;;12.02;5.18;;;;;;;13.61;99.89;101222.38;4971216;28;20050;-75
2023/08/08 03:34:28;;;;;;;10.85;5.35;;;;;;;13.61;99.95;101221.53;4971886;28;20038;-74
2023/08/08 03:36:56;;;;;;;14.20;5.57;;;;;;;13.62;100.00;101225.91;4972092;28;20061;-75
2023/08/08 03:39:24;;;;;;;13.57;5.60;;;;;;;13.63;100.00;101217.91;4989525;28;20768;-74
2023/08/08 03:41:52;;;;;;;9.07;5.45;;;;;;;13.63;100.00;101225.00;4971675;28;20054;-75
2023/08/08 03:44:19;;;;;;;9.43;5.40;;;;;;;13.63;100.00;101230.28;4971426;28;20070;-75
2023/08/08 03:46:47;;;;;;;9.73;5.50;;;;;;;13.64;100.00;101224.94;4984681;28;20050;-75
2023/08/08 03:49:14;;;;;;;12.07;5.43;;;;;;;13.62;100.00;101217.97;4988355;28;20054;-75
2023/08/08 03:51:41;;;;;;;11.07;5.80;;;;;;;13.61;100.00;101224.19;4989554;28;20050;-75
2023/08/08 03:54:08;;;;;;;14.70;6.15;;;;;;;13.57;100.00;101220.78;4988430;28;20049;-75
2023/08/08 03:56:35;;;;;;;11.10;5.90;;;;;;;13.54;100.00;101218.25;4989280;28;20049;-75
2023/08/08 03:59:02;;;;;;;13.68;6.40;;;;;;;13.50;100.00;101216.63;4970318;28;20464;-74
2023/08/08 04:01:30;;;;;;;12.43;6.00;;;;;;;13.47;100.00;101214.09;4955400;28;20133;-74
2023/08/08 04:03:57;;;;;;;12.75;5.68;;;;;;;13.43;100.00;101208.03;4971726;28;20124;-75
2023/08/08 04:06:24;;;;;;;14.00;6.30;;;;;;;13.42;100.00;101214.28;4970875;28;20050;-74
2023/08/08 04:08:51;;;;;;;14.45;6.35;;;;;;;13.41;100.00;101212.53;4987644;28;20056;-75
2023/08/08 04:11:18;;;;;;;14.52;6.45;;;;;;;13.42;100.00;101211.63;4971247;28;20546;-75
2023/08/08 04:13:45;;;;;;;15.45;6.05;;;;;;;13.43;100.00;101204.53;4971752;28;20058;-74
2023/08/08 04:16:14;;;;;;;12.90;6.13;;;;;;;13.44;100.00;101211.56;4955829;28;20050;-74
2023/08/08 04:18:41;;;;;;;15.20;6.25;;;;;;;13.41;100.00;101204.59;4988841;28;20579;-75
2023/08/08 04:21:09;;;;;;;13.95;5.95;;;;;;;13.43;100.00;101202.72;4988766;28;20058;-76
2023/08/08 04:23:36;;;;;;;14.45;6.88;;;;;;;13.44;100.00;101198.31;4988584;28;20150;-75
2023/08/08 04:26:03;;;;;;;16.35;7.30;;;;;;;13.43;100.00;101202.72;4988453;28;20038;-74
2023/08/08 04:28:30;;;;;;;16.27;6.80;;;;;;;13.44;100.00;101200.97;4988738;28;20046;-75
2023/08/08 04:30:57;;;;;;;15.63;6.75;;;;;;;13.45;100.00;101206.19;4987900;28;20054;-75
2023/08/08 04:33:24;;;;;;;14.05;6.75;;;;;;;13.45;100.00;101205.34;4988999;28;20585;-75
2023/08/08 04:35:51;;;;;;;15.98;6.90;;;;;;;13.47;100.00;101208.81;4971380;28;20410;-75
2023/08/08 04:38:19;;;;;;;12.57;6.93;;;;;;;13.47;100.00;101212.31;4971193;28;20129;-75
2023/08/08 04:40:46;;;;;;;14.90;6.75;;;;;;;13.45;100.00;101202.69;4967489;28;20062;-75
2023/08/08 04:43:13;;;;;;;15.82;7.28;;;;;;;13.46;100.00;101215.03;4968461;28;20058;-75
2023/08/08 04:45:40;;;;;;;12.07;7.43;;;;;;;13.44;100.00;101208.91;4976495;28;20127;-75
2023/08/08 04:48:07;;;;;;;16.30;7.03;;;;;;;13.42;100.00;101208.09;4969138;28;20046;-75
2023/08/08 04:50:34;;;;;;;16.50;7.07;;;;;;;13.38;100.00;101204.66;4970241;28;20771;-75
2023/08/08 04:53:02;;;;;;;15.32;7.78;;;;;;;13.38;100.00;101203.81;4970374;28;20050;-75
2023/08/08 04:55:29;;;;;;;17.00;6.85;;;;;;;13.38;100.00;101209.97;4987817;28;20550;-76
2023/08/08 04:57:56;;;;;;;14.20;7.80;;;;;;;13.39;100.00;101206.44;4970606;28;20081;-75
2023/08/08 05:00:26;;;;;;;21.75;7.88;;;;;;;13.43;100.00;101201.88;4986968;28;20070;-75
2023/08/08 05:02:53;;;;;;;18.58;7.95;;;;;;;13.51;100.00;101203.34;4988334;28;20035;-75
2023/08/08 05:05:20;;;;;;;15.55;7.78;;;;;;;13.62;100.00;101202.94;4989116;28;20622;-75
2023/08/08 05:07:47;;;;;;;18.35;7.40;;;;;;;13.69;100.00;101203.56;4970823;28;20046;-75
2023/08/08 05:10:14;;;;;;;14.35;6.97;;;;;;;13.89;100.00;101202.78;4991218;28;20046;-75
2023/08/08 05:12:41;;;;;;;15.65;7.20;;;;;;;14.22;100.00;101199.75;4973712;28;20046;-75
2023/08/08 05:15:09;;;;;;;13.25;7.00;;;;;;;14.68;99.37;101199.69;4990712;28;20129;-75
2023/08/08 05:17:37;;;;;;;13.98;7.13;;;;;;;15.14;97.04;101182.72;4991597;28;20521;-77
2023/08/08 05:20:05;;;;;;;16.00;6.85;;;;;;;14.97;96.66;101199.41;4992378;28;20164;-75
2023/08/08 05:22:32;;;;;;;14.98;6.70;;;;;;;14.75;96.23;101198.50;4991483;28;20046;-76
2023/08/08 05:24:59;;;;;;;17.10;6.38;;;;;;;14.72;96.09;101195.13;4991990;28;20056;-75
2023/08/08 05:27:26;;;;;;;13.93;5.93;;;;;;;14.85;95.83;101191.03;4986435;28;20129;-75
2023/08/08 05:29:56;;;;;;;15.80;6.05;;;;;;;14.96;95.86;101195.00;4973038;28;20097;-75
2023/08/08 05:32:23;;;;;;;13.07;6.63;;;;;;;15.00;96.09;101197.47;4981927;28;20125;-75
2023/08/08 05:34:51;;;;;;;14.70;6.55;;;;;;;15.24;95.45;101194.69;4992541;28;20503;-75
2023/08/08 05:37:18;;;;;;;20.23;6.28;;;;;;;16.94;88.76;101193.75;4991295;28;20046;-75
2023/08/08 05:39:45;;;;;;;11.40;5.13;;;;;;;17.36;86.51;101199.59;4992240;28;20101;-75
2023/08/08 05:42:12;;;;;;;15.45;5.60;;;;;;;17.62;84.26;101202.63;4973208;28;20765;-75
2023/08/08 05:44:41;;;;;;;10.77;5.10;;;;;;;17.88;81.69;101203.88;4990368;28;20541;-75
2023/08/08 05:47:09;;;;;;;13.25;4.78;;;;;;;19.12;77.34;101204.84;5004381;28;20178;-75
2023/08/08 05:49:36;;;;;;;10.90;4.70;;;;;;;18.11;78.42;101205.28;4992000;28;20057;-75
2023/08/08 05:52:04;;;;;;;14.10;4.60;;;;;;;17.39;81.60;101200.28;4990924;28;20514;-75
2023/08/08 05:54:31;;;;;;;11.00;4.60;;;;;;;18.06;80.08;101199.38;4990153;28;20069;-75
2023/08/08 05:56:58;;;;;;;10.98;4.82;;;;;;;17.85;79.06;101210.25;4973923;28;20125;-75
2023/08/08 05:59:25;;;;;;;11.65;4.82;;;;;;;17.16;81.85;101205.94;4991130;28;20289;-75
2023/08/08 06:01:52;;;;;;;12.27;5.28;;;;;;;16.72;83.18;101197.50;4988124;28;20099;-75
2023/08/08 06:04:19;;;;;;;14.02;4.95;;;;;;;16.39;84.72;101200.91;4969323;28;20573;-75
2023/08/08 06:06:48;;;;;;;13.98;5.18;;;;;;;16.07;86.27;101205.97;4990033;28;20120;-75
2023/08/08 06:09:16;;;;;;;11.18;5.25;;;;;;;15.84;87.86;101204.41;4991212;28;20050;-75
2023/08/08 06:11:44;;;;;;;9.23;4.78;;;;;;;15.67;88.77;101210.47;4972411;28;20411;-75
2023/08/08 06:14:11;;;;;;;13.27;5.47;;;;;;;15.60;89.18;101217.00;4969752;28;20073;-74
2023/08/08 06:16:38;;;;;;;12.65;5.50;;;;;;;15.55;89.37;101216.31;4974241;28;20077;-75
2023/08/08 06:19:06;;;;;;;13.35;5.03;;;;;;;15.49;90.32;101217.47;4991198;28;20137;-75
2023/08/08 06:21:33;;;;;;;19.52;5.68;;;;;;;15.45;90.22;101218.56;4988883;28;20042;-75
2023/08/08 06:24:00;;;;;;;11.40;5.68;;;;;;;15.44;90.40;101216.81;4990904;28;20050;-75
2023/08/08 06:26:27;;;;;;;10.63;5.10;;;;;;;15.50;90.19;101222.72;4990589;28;20053;-74
2023/08/08 06:28:54;;;;;;;16.75;6.00;;;;;;;15.59;90.77;101223.25;4990274;28;20069;-75
2023/08/08 06:31:22;;;;;;;13.80;5.63;;;;;;;15.67;90.44;101223.75;4990726;28;20109;-75
2023/08/08 06:33:49;;;;;;;10.10;5.63;;;;;;;15.65;89.79;101215.88;4973548;28;20112;-75
2023/08/08 06:36:16;;;;;;;11.43;5.22;;;;;;;15.66;90.17;101222.03;4990637;28;20057;-75
2023/08/08 06:38:43;;;;;;;10.65;5.65;;;;;;;15.64;89.94;101221.22;4969917;28;20093;-75
2023/08/08 06:41:10;;;;;;;10.50;5.35;;;;;;;15.63;90.41;101225.69;4973518;28;20510;-75
2023/08/08 06:43:38;;;;;;;12.57;5.07;;;;;;;15.72;90.08;101229.69;4987020;28;20101;-75
2023/08/08 06:46:05;;;;;;;10.32;5.32;;;;;;;15.93;88.56;101233.22;4990510;28;20057;-75
2023/08/08 06:48:32;;;;;;;11.85;5.22;;;;;;;15.99;88.69;101230.25;4990827;28;20074;-75
2023/08/08 06:50:59;;;;;;;14.90;5.22;;;;;;;16.08;88.47;101241.38;4990566;28;20057;-75
2023/08/08 06:53:27;;;;;;;11.30;4.93;;;;;;;16.15;87.94;101232.22;4971829;28;21596;-75
2023/08/08 06:55:55;;;;;;;15.73;5.15;;;;;;;16.21;86.94;101237.22;4990771;28;20473;-75
2023/08/08 06:58:23;;;;;;;12.95;5.40;;;;;;;16.26;86.84;101237.00;4972344;28;20050;-75
2023/08/08 07:00:50;;;;;;;12.27;5.25;;;;;;;16.22;87.35;101244.28;4990778;28;20042;-75
2023/08/08 07:03:18;;;;;;;11.35;4.90;;;;;;;16.21;87.41;101244.34;4988481;28;20057;-75
2023/08/08 07:05:45;;;;;;;9.85;4.75;;;;;;;16.28;86.48;101243.13;4990354;28;20057;-75
2023/08/08 07:08:12;;;;;;;11.38;5.13;;;;;;;16.33;86.66;101243.75;4971330;28;20053;-76
2023/08/08 07:10:39;;;;;;;14.52;4.75;;;;;;;16.44;84.31;101237.91;4990095;28;20073;-75
2023/08/08 07:13:07;;;;;;;10.82;4.75;;;;;;;16.54;84.32;101238.31;4987649;28;20066;-75
2023/08/08 07:15:34;;;;;;;8.35;4.40;;;;;;;16.74;84.73;101235.53;4972941;28;20046;-75
2023/08/08 07:18:01;;;;;;;10.85;5.18;;;;;;;17.06;83.97;101232.22;4972387;28;20590;-75
2023/08/08 07:20:31;;;;;;;15.38;4.88;;;;;;;17.31;82.86;101225.59;4973337;28;20042;-75
2023/08/08 07:23:00;;;;;;;9.77;4.13;;;;;;;17.37;81.60;101227.97;4971649;28;20161;-76
2023/08/08 07:25:27;;;;;;;20.80;5.20;;;;;;;17.25;80.42;101229.44;4971412;28;20061;-75
2023/08/08 07:27:54;;;;;;;8.20;3.97;;;;;;;17.06;79.57;101234.88;4971447;28;20042;-75
2023/08/08 07:30:21;;;;;;;8.90;3.47;;;;;;;16.91;80.24;101234.69;4989378;28;20049;-75
2023/08/08 07:32:49;;;;;;;17.77;4.65;;;;;;;16.89;81.12;101238.38;4987306;28;20597;-76
2023/08/08 07:35:17;;;;;;;14.00;4.10;;;;;;;16.95;81.14;101229.25;4988591;28;20177;-76
2023/08/08 07:37:44;;;;;;;10.68;4.22;;;;;;;17.06;79.80;101227.75;4987314;28;20118;-77
2023/08/08 07:40:20;;;;;;;19.63;4.20;;;;;;;17.30;79.54;101224.75;4988010;28;20046;-75
2023/08/08 07:42:49;;;;;;;10.13;4.10;;;;;;;17.42;77.40;101223.22;4966048;28;20054;-75
2023/08/08 07:45:16;;;;;;;8.63;3.67;;;;;;;17.60;77.60;101220.53;4984734;28;20069;-75
2023/08/08 07:47:43;;;;;;;11.52;3.90;;;;;;;17.64;77.22;101222.97;4989560;28;20054;-75
2023/08/08 07:50:11;;;;;;;13.93;3.85;;;;;;;17.68;76.47;101228.97;4989540;28;20050;-75
2023/08/08 07:52:39;;;;;;;6.70;3.72;;;;;;;17.72;76.27;101229.69;4988910;28;20609;-75
2023/08/08 07:55:06;;;;;;;7.78;3.30;;;;;;;17.76;75.88;101220.53;4989706;28;20117;-75
2023/08/08 07:57:34;;;;;;;11.02;3.45;;;;;;;17.78;74.68;101218.66;4987492;28;20486;-75
2023/08/08 08:00:12;;;;;;;7.75;3.65;;;;;;;17.83;75.58;101228.13;4987271;28;20070;-76
2023/08/08 08:02:43;;;;;;;17.45;3.53;;;;;;;17.90;75.11;101228.66;4970905;28;20039;-75
2023/08/08 08:05:11;;;;;;;11.82;3.35;;;;;;;17.94;73.79;101232.00;4968686;28;20050;-76
2023/08/08 08:07:39;;;;;;;8.60;3.63;;;;;;;17.91;74.03;101230.38;4977151;28;20062;-75
2023/08/08 08:10:09;;;;;;;6.80;3.30;;;;;;;17.88;74.04;101227.03;4984104;28;20149;-76
2023/08/08 08:12:37;;;;;;;12.43;3.65;;;;;;;17.76;74.78;101228.53;4936499;28;20061;-75
2023/08/08 08:15:05;;;;;;;7.47;3.42;;;;;;;17.73;75.01;101226.06;4951632;28;20039;-76
2023/08/08 08:17:32;;;;;;;6.63;3.08;;;;;;;17.65;75.26;101224.66;4952445;28;20047;-76
2023/08/08 08:19:59;;;;;;;7.47;3.05;;;;;;;17.59;76.59;101219.66;4974339;28;20141;-76
2023/08/08 08:22:26;;;;;;;9.30;3.30;;;;;;;17.66;74.85;101226.38;4971542;28;20106;-76
2023/08/08 08:24:53;;;;;;;8.00;2.67;;;;;;;17.76;73.15;101225.88;4989166;28;20134;-75
2023/08/08 08:27:20;;;;;;;5.68;2.70;;;;;;;17.85;74.06;101214.75;4988763;28;20074;-76
2023/08/08 08:29:47;;;;;;;6.65;2.33;;;;;;;17.92;73.48;101217.91;4970599;28;20042;-76
2023/08/08 08:32:15;;;;;;;6.25;2.35;;;;;;;17.91;72.42;101216.19;4971238;28;20054;-75
2023/08/08 08:34:42;;;;;;;6.05;1.77;;;;;;;17.90;71.25;101219.81;4988631;28;20112;-75
2023/08/08 08:37:09;;;;;;;5.32;2.10;;;;;;;17.84;71.18;101221.00;4987189;28;20529;-75
2023/08/08 08:39:36;;;;;;;6.57;1.88;;;;;;;17.93;71.77;101223.16;4988949;28;20042;-75
2023/08/08 08:42:06;;;;;;;8.70;2.05;;;;;;;18.02;71.85;101215.63;4953555;28;20057;-75
2023/08/08 08:44:35;;;;;;;5.25;1.73;;;;;;;18.15;70.67;101220.19;4984364;28;20053;-75
2023/08/08 08:47:10;;;;;;;6.90;1.70;;;;;;;18.23;68.70;101224.22;4984217;28;20046;-76
2023/08/08 08:49:41;;;;;;;4.97;1.65;;;;;;;18.38;64.46;101225.16;4969122;28;20048;-75
2023/08/08 08:52:09;;;;;;;6.07;1.15;;;;;;;18.40;63.17;101213.47;4987802;28;20057;-76
2023/08/08 08:54:36;;;;;;;4.05;1.25;;;;;;;18.42;63.54;101219.56;4988867;28;20529;-75
2023/08/08 08:57:04;;;;;;;4.07;1.10;;;;;;;18.44;64.33;101216.81;4969351;28;20592;-75
2023/08/08 08:59:31;;;;;;;5.00;0.98;;;;;;;18.43;64.61;101213.28;4966957;28;20074;-75
2023/08/08 09:01:59;;;;;;;2.35;0.80;;;;;;;18.55;63.17;101208.16;4981382;28;20042;-76
2023/08/08 09:04:29;;;;;;;4.55;0.95;;;;;;;18.68;62.72;101208.31;4988587;28;20045;-75
2023/08/08 09:06:56;;;;;;;11.27;1.40;;;;;;;18.77;63.40;101205.97;4987926;28;20091;-76
2023/08/08 09:09:23;;;;;;;2.50;0.98;;;;;;;18.92;62.84;101196.19;4988845;28;20050;-75
2023/08/08 09:11:55;;;;;;;10.23;1.33;;;;;;;19.07;59.11;101202.44;4987606;28;20038;-76
2023/08/08 09:14:25;;;;;;;4.78;1.05;;;;;;;19.06;58.15;101208.75;4970518;28;20050;-75
2023/08/08 09:16:54;;;;;;;6.68;1.27;;;;;;;18.92;59.41;101208.69;4988106;28;20054;-75
2023/08/08 09:19:22;;;;;;;4.13;1.00;;;;;;;18.73;59.54;101212.44;4988735;28;20043;-75
2023/08/08 09:21:51;;;;;;;4.78;1.20;;;;;;;18.47;61.99;101214.81;4988510;28;20054;-76
2023/08/08 09:24:19;;;;;;;8.45;1.15;;;;;;;18.20;63.69;101222.59;4971533;28;20100;-76
2023/08/08 09:26:46;;;;;;;13.05;1.60;;;;;;;17.90;64.97;101217.16;4986822;28;20129;-75
2023/08/08 09:29:14;;;;;;;4.13;1.00;;;;;;;17.70;66.67;101224.44;4986972;28;20077;-75
2023/08/08 09:31:42;;;;;;;5.22;1.45;;;;;;;17.53;67.43;101223.53;4970551;28;20106;-75
2023/08/08 09:34:09;;;;;;;5.05;1.35;;;;;;;17.59;67.85;101221.50;4986496;28;20042;-75
2023/08/08 09:36:36;;;;;;;5.65;1.08;;;;;;;17.78;68.35;101214.22;4988299;28;20057;-75
2023/08/08 09:39:04;;;;;;;4.68;1.20;;;;;;;18.07;67.05;101214.44;4988482;28;20069;-75
2023/08/08 09:41:32;;;;;;;4.30;1.23;;;;;;;18.37;65.91;101220.75;4987498;28;20097;-76
2023/08/08 09:44:00;;;;;;;4.97;1.33;;;;;;;18.45;65.27;101197.19;4970374;28;20042;-75
2023/08/08 09:46:31;;;;;;;5.65;1.60;;;;;;;18.43;66.08;101215.09;4984510;28;20061;-75
2023/08/08 09:49:00;;;;;;;7.13;1.67;;;;;;;18.33;64.33;101212.06;4970460;28;20043;-75
2023/08/08 09:51:28;;;;;;;6.22;1.20;;;;;;;18.35;65.03;101223.53;4970328;28;20137;-76
2023/08/08 09:53:56;;;;;;;1.50;1.05;;;;;;;18.43;64.23;101223.94;4987890;28;20070;-76
2023/08/08 09:56:25;;;;;;;4.70;1.08;;;;;;;18.55;64.17;101218.84;4969552;28;20043;-75
2023/08/08 09:58:53;;;;;;;5.18;1.50;;;;;;;18.62;64.46;101213.06;4972467;28;20422;-75
2023/08/08 10:01:21;;;;;;;4.28;1.48;;;;;;;18.69;64.70;101210.03;4979014;28;20140;-75
2023/08/08 10:03:52;;;;;;;3.83;1.20;;;;;;;18.66;63.00;101220.91;4969937;28;20038;-76
2023/08/08 10:06:19;;;;;;;2.22;1.00;;;;;;;18.45;63.17;101218.53;4991559;28;20074;-76
2023/08/08 10:08:47;;;;;;;4.30;1.35;;;;;;;18.25;63.96;101227.66;4991826;28;20084;-76
2023/08/08 10:11:16;;;;;;;5.97;1.35;;;;;;;18.12;65.16;101230.19;4974572;28;20546;-76
2023/08/08 10:13:52;;;;;;;5.78;1.25;;;;;;;18.03;65.80;101228.03;4991386;28;20461;-75
2023/08/08 10:16:23;;;;;;;5.57;1.60;;;;;;;18.13;67.05;101232.75;4990625;28;20601;-75
2023/08/08 10:19:00;;;;;;;6.88;1.75;;;;;;;18.61;64.99;101222.03;4989596;28;20069;-75
2023/08/08 10:21:35;;;;;;;5.53;1.20;;;;;;;19.03;63.52;101234.78;4954898;28;20047;-76
2023/08/08 10:24:08;;;;;;;5.57;1.63;;;;;;;19.51;63.12;101222.03;4971520;28;20050;-76
2023/08/08 10:26:57;;;;;;;4.15;1.38;;;;;;;19.89;59.43;101223.31;4939097;28;20062;-76
2023/08/08 10:29:27;;;;;;;5.80;1.33;;;;;;;19.95;59.68;101233.59;4971130;28;20689;-75
2023/08/08 10:32:04;;;;;;;5.97;0.90;;;;;;;19.94;57.20;101221.19;4954134;28;20053;-76
2023/08/08 10:34:41;;;;;;;9.63;1.25;;;;;;;20.09;57.12;101214.00;4988539;28;20034;-75
2023/08/08 10:37:17;;;;;;;20.60;1.88;;;;;;;20.33;56.96;101218.69;4972848;28;20042;-76
2023/08/08 10:39:58;;;;;;;5.28;1.27;;;;;;;20.29;56.55;101230.59;4972827;28;20639;-76
2023/08/08 10:42:28;;;;;;;5.97;1.10;;;;;;;20.09;56.49;101224.72;4989195;28;20046;-76
2023/08/08 10:44:58;;;;;;;3.30;1.17;;;;;;;19.97;57.00;101230.84;4989051;28;20050;-75
2023/08/08 10:47:31;;;;;;;2.78;1.27;;;;;;;20.01;59.29;101229.69;4989747;28;20080;-76
2023/08/08 10:50:06;;;;;;;2.90;1.13;;;;;;;20.22;57.19;101232.81;4990573;28;20072;-75
2023/08/08 10:52:52;;;;;;;3.75;1.48;;;;;;;20.46;57.61;101224.09;4984884;28;20058;-76
2023/08/08 10:55:34;;;;;;;1.83;0.95;;;;;;;20.39;55.02;101229.03;4971153;28;20101;-75
2023/08/08 10:58:10;;;;;;;2.63;1.13;;;;;;;20.30;54.26;101233.16;4976015;28;20055;-75
2023/08/08 11:00:39;;;;;;;6.78;1.40;;;;;;;20.23;55.98;101220.25;4988462;28;20163;-75
2023/08/08 11:03:08;;;;;;;19.13;2.65;;;;;;;20.11;56.27;101222.78;4990096;28;20038;-76
2023/08/08 11:05:38;;;;;;;6.95;1.35;;;;;;;20.01;56.64;101225.19;4990409;28;20050;-75
2023/08/08 11:08:07;;;;;;;6.25;1.33;;;;;;;19.92;57.58;101217.78;4989960;28;20050;-76
2023/08/08 11:10:37;;;;;;;5.10;1.20;;;;;;;19.95;57.64;101222.91;4990651;28;20085;-76
2023/08/08 11:13:07;;;;;;;2.30;0.70;;;;;;;19.87;57.07;101219.84;4972918;28;20042;-76
2023/08/08 11:15:37;;;;;;;7.25;1.27;;;;;;;19.88;57.90;101242.13;4989223;28;20039;-75
2023/08/08 11:18:08;;;;;;;2.38;1.10;;;;;;;19.95;57.26;101224.72;4989040;28;20054;-76
2023/08/08 11:20:36;;;;;;;7.80;1.50;;;;;;;20.19;57.42;101211.59;4972832;28;20538;-76
2023/08/08 11:23:10;;;;;;;10.55;1.30;;;;;;;20.43;55.75;101206.44;4972519;28;20050;-76
2023/08/08 11:25:42;;;;;;;6.07;1.10;;;;;;;20.51;56.16;101205.06;4989232;28;21111;-76